Time;durP1;ratioP1;P1;durP2;ratioP2;P2;SDS_P1;SDS_P2;PMS_P1;PMS_P2;Temp;Humidity;BMP_temperature;BMP_pressure;BME280_temperature;BME280_humidity;BME280_pressure;Samples;Min_cycle;Max_cycle;Signal;HPM_P1;HPM_P2
2022/08/14 00:01:59;;;;;;;4.17;3.20;;;23.50;99.90;;;;;;5034889;28;20315;-58
2022/08/14 00:04:30;;;;;;;5.13;3.33;;;23.40;99.90;;;;;;5035331;28;20665;-58
2022/08/14 00:07:09;;;;;;;3.60;3.30;;;23.40;99.90;;;;;;5035092;28;20230;-58
2022/08/14 00:09:38;;;;;;;6.13;3.50;;;23.40;99.90;;;;;;5033760;28;20310;-58
2022/08/14 00:12:26;;;;;;;4.13;3.50;;;23.40;99.90;;;;;;5029049;28;20222;-57
2022/08/14 00:15:08;;;;;;;4.80;3.33;;;23.40;99.90;;;;;;5038330;28;20283;-57
2022/08/14 00:17:37;;;;;;;3.30;3.00;;;23.40;99.90;;;;;;5034848;28;20601;-57
2022/08/14 00:20:29;;;;;;;3.50;3.20;;;23.40;99.90;;;;;;5034386;28;20623;-57
2022/08/14 00:23:11;;;;;;;3.70;3.07;;;23.30;99.90;;;;;;5027156;28;20229;-58
2022/08/14 00:25:46;;;;;;;5.47;3.33;;;23.30;99.90;;;;;;5034729;28;20591;-58
2022/08/14 00:28:34;;;;;;;4.40;3.00;;;23.30;99.90;;;;;;5029887;28;20241;-57
2022/08/14 00:31:06;;;;;;;5.20;3.10;;;23.30;99.90;;;;;;5033175;28;20236;-57
2022/08/14 00:33:36;;;;;;;3.43;3.13;;;23.30;99.90;;;;;;5034652;28;20329;-58
2022/08/14 00:36:21;;;;;;;3.50;3.20;;;23.30;99.90;;;;;;5035010;28;20577;-59
2022/08/14 00:39:13;;;;;;;3.60;2.97;;;23.30;99.90;;;;;;5025957;28;20221;-57
2022/08/14 00:41:45;;;;;;;3.70;3.03;;;23.30;99.90;;;;;;5031025;28;20259;-58
2022/08/14 00:44:14;;;;;;;3.20;2.83;;;23.20;99.90;;;;;;5034909;28;20239;-57
2022/08/14 00:46:53;;;;;;;3.73;3.20;;;23.20;99.90;;;;;;5032599;28;20227;-57
2022/08/14 00:49:27;;;;;;;4.27;3.00;;;23.20;99.90;;;;;;5033527;28;20241;-58
2022/08/14 00:51:59;;;;;;;4.00;2.80;;;23.20;99.90;;;;;;5032798;28;20585;-58
2022/08/14 00:54:29;;;;;;;4.33;2.83;;;23.10;99.90;;;;;;5034366;28;20321;-57
2022/08/14 00:56:57;;;;;;;6.30;2.83;;;23.10;99.90;;;;;;5034186;28;20315;-57
2022/08/14 00:59:27;;;;;;;6.33;3.00;;;23.10;99.90;;;;;;5033126;28;20283;-59
2022/08/14 01:02:01;;;;;;;3.23;2.90;;;23.10;99.90;;;;;;5033581;28;20229;-58
2022/08/14 01:04:35;;;;;;;5.27;2.97;;;23.10;99.90;;;;;;5033834;28;20728;-58
2022/08/14 01:07:22;;;;;;;3.97;3.00;;;23.20;99.90;;;;;;5034279;28;20233;-58
2022/08/14 01:09:53;;;;;;;3.23;2.93;;;23.20;99.90;;;;;;5033302;28;20301;-59
2022/08/14 01:12:22;;;;;;;4.07;3.10;;;23.10;99.90;;;;;;5034122;28;20303;-59
2022/08/14 01:14:57;;;;;;;4.27;3.00;;;23.10;99.90;;;;;;5037614;28;20255;-58
2022/08/14 01:21:02;;;;;;;3.10;2.70;;;23.10;99.90;;;;;;5033973;28;20308;-58
2022/08/14 01:23:12;;;;;;;3.30;2.80;;;23.10;99.90;;;;;;5033784;28;20236;-58
2022/08/14 01:25:47;;;;;;;3.37;3.07;;;23.10;99.90;;;;;;5033705;28;20309;-58
2022/08/14 01:28:15;;;;;;;4.80;3.03;;;23.10;99.90;;;;;;5033902;28;20243;-58
2022/08/14 01:31:11;;;;;;;3.90;3.03;;;23.00;99.90;;;;;;5032239;28;20265;-57
2022/08/14 01:33:43;;;;;;;5.83;3.00;;;23.00;99.90;;;;;;5033387;28;20231;-57
2022/08/14 01:36:35;;;;;;;2.80;2.60;;;23.00;99.90;;;;;;5033480;28;20224;-58
2022/08/14 01:39:08;;;;;;;4.07;3.10;;;23.00;99.90;;;;;;5032812;28;20232;-58
2022/08/14 01:41:41;;;;;;;3.90;3.07;;;23.00;99.90;;;;;;5029677;28;20748;-57
2022/08/14 01:44:14;;;;;;;3.20;2.90;;;22.90;99.90;;;;;;5033468;28;20261;-57
2022/08/14 01:47:11;;;;;;;3.10;2.90;;;22.90;99.90;;;;;;5032453;28;20312;-57
2022/08/14 01:49:48;;;;;;;4.27;3.23;;;22.90;99.90;;;;;;5032215;28;20260;-58
2022/08/14 01:52:27;;;;;;;3.40;2.97;;;22.90;99.90;;;;;;5032928;28;20229;-59
2022/08/14 01:55:16;;;;;;;3.47;2.90;;;22.80;99.90;;;;;;5033292;28;20236;-56
2022/08/14 01:57:45;;;;;;;3.63;2.90;;;22.80;99.90;;;;;;5033045;28;20235;-58
2022/08/14 02:00:37;;;;;;;5.13;3.30;;;22.70;99.90;;;;;;5031763;28;20240;-58
2022/08/14 02:03:06;;;;;;;3.20;2.90;;;22.70;99.90;;;;;;5033296;28;20317;-57
2022/08/14 02:05:34;;;;;;;3.37;3.03;;;22.70;99.90;;;;;;5033073;28;20248;-57
2022/08/14 02:08:06;;;;;;;4.53;3.03;;;22.70;99.90;;;;;;5032817;28;20702;-59
2022/08/14 02:10:38;;;;;;;3.47;3.17;;;22.70;99.90;;;;;;5033023;28;20584;-57
2022/08/14 02:13:17;;;;;;;3.87;3.27;;;22.70;99.90;;;;;;5025491;28;20243;-58
2022/08/14 02:15:46;;;;;;;4.00;2.80;;;22.70;99.90;;;;;;5035952;28;20228;-58
2022/08/14 02:18:17;;;;;;;4.63;2.80;;;22.70;99.90;;;;;;5032817;28;20224;-58
2022/08/14 02:20:47;;;;;;;4.13;3.30;;;22.70;99.90;;;;;;5031962;28;20220;-58
2022/08/14 02:23:19;;;;;;;2.87;2.67;;;22.70;99.90;;;;;;5032860;28;20263;-57
2022/08/14 02:26:15;;;;;;;5.03;3.17;;;22.70;99.90;;;;;;5033163;28;20229;-58
2022/08/14 02:28:55;;;;;;;3.83;2.83;;;22.70;99.90;;;;;;5033134;28;20228;-58
2022/08/14 02:31:31;;;;;;;3.20;2.90;;;22.70;99.90;;;;;;5031056;28;20660;-58
2022/08/14 02:34:13;;;;;;;3.10;2.83;;;22.70;99.90;;;;;;5013071;28;20220;-58
2022/08/14 02:36:54;;;;;;;4.20;2.87;;;22.70;99.90;;;;;;5023288;28;20227;-58
2022/08/14 02:39:36;;;;;;;3.23;2.80;;;22.70;99.90;;;;;;5033470;28;20260;-58
2022/08/14 02:42:08;;;;;;;4.67;2.80;;;22.70;99.90;;;;;;5033046;28;20631;-59
2022/08/14 02:44:42;;;;;;;5.10;2.97;;;22.70;99.90;;;;;;5035481;28;20295;-58
2022/08/14 02:47:17;;;;;;;3.17;2.77;;;22.70;99.90;;;;;;5025667;28;20595;-59
2022/08/14 02:49:48;;;;;;;3.70;3.10;;;22.70;99.90;;;;;;5032798;28;20255;-58
2022/08/14 02:52:22;;;;;;;4.07;2.90;;;22.70;99.90;;;;;;5036535;28;20252;-58
2022/08/14 02:55:11;;;;;;;3.73;2.80;;;22.70;99.90;;;;;;5037007;28;20688;-57
2022/08/14 02:57:51;;;;;;;3.33;2.90;;;22.70;99.90;;;;;;5036085;28;20741;-58
2022/08/14 03:00:31;;;;;;;3.60;2.70;;;22.60;99.90;;;;;;5035009;28;20221;-57
2022/08/14 03:03:01;;;;;;;4.27;2.87;;;22.60;99.90;;;;;;5036567;28;20623;-58
2022/08/14 03:05:36;;;;;;;3.40;3.10;;;22.60;99.90;;;;;;5036226;28;20251;-59
2022/08/14 03:08:10;;;;;;;3.67;3.00;;;22.60;99.90;;;;;;5036335;28;20282;-58
2022/08/14 03:10:42;;;;;;;4.20;3.00;;;22.60;99.90;;;;;;5037008;28;20632;-57
2022/08/14 03:13:19;;;;;;;6.37;3.23;;;22.60;99.90;;;;;;5029084;28;20633;-58
2022/08/14 03:15:52;;;;;;;3.50;2.90;;;22.60;99.90;;;;;;5036122;28;20224;-58
2022/08/14 03:18:24;;;;;;;4.33;2.77;;;22.60;99.90;;;;;;5035919;28;20270;-57
2022/08/14 03:21:01;;;;;;;4.23;2.87;;;22.60;99.90;;;;;;5034808;28;20227;-58
2022/08/14 03:23:35;;;;;;;5.37;2.80;;;22.60;99.90;;;;;;5036098;28;20321;-58
2022/08/14 03:26:07;;;;;;;6.30;2.90;;;22.60;99.90;;;;;;5036020;28;20224;-58
2022/08/14 03:28:39;;;;;;;3.53;2.80;;;22.60;99.90;;;;;;5036038;28;20232;-57
2022/08/14 03:31:10;;;;;;;2.83;2.63;;;22.60;99.90;;;;;;5036602;28;20236;-57
2022/08/14 03:33:41;;;;;;;4.27;2.70;;;22.50;99.90;;;;;;5035647;28;20232;-58
2022/08/14 03:36:13;;;;;;;3.93;2.93;;;22.50;99.90;;;;;;5036214;28;20225;-58
2022/08/14 03:39:03;;;;;;;5.00;2.90;;;22.50;99.90;;;;;;5036041;28;20223;-58
2022/08/14 03:41:48;;;;;;;5.27;2.70;;;22.40;99.90;;;;;;5032287;28;20221;-58
2022/08/14 03:44:18;;;;;;;2.90;2.70;;;22.40;99.90;;;;;;5035616;28;20316;-58
2022/08/14 03:47:06;;;;;;;5.57;3.00;;;22.30;99.90;;;;;;5035884;28;20227;-58
2022/08/14 03:49:35;;;;;;;3.27;2.80;;;22.30;99.90;;;;;;5036448;28;20646;-58
2022/08/14 03:52:10;;;;;;;2.77;2.57;;;22.30;99.90;;;;;;5031525;28;20225;-58
2022/08/14 03:54:59;;;;;;;4.73;2.97;;;22.30;99.90;;;;;;5035511;28;20234;-57
2022/08/14 03:57:31;;;;;;;4.40;2.87;;;22.30;99.90;;;;;;5035159;28;20257;-58
2022/08/14 04:00:03;;;;;;;3.83;3.00;;;22.30;99.90;;;;;;5034527;28;20323;-59
2022/08/14 04:02:39;;;;;;;6.23;2.73;;;22.20;99.90;;;;;;5034029;28;20687;-58
2022/08/14 04:05:14;;;;;;;4.20;3.10;;;22.20;99.90;;;;;;5015770;28;20244;-58
2022/08/14 04:07:44;;;;;;;3.70;2.90;;;22.20;99.90;;;;;;5032700;28;20220;-57
2022/08/14 04:10:27;;;;;;;5.43;2.87;;;22.20;99.90;;;;;;5027137;28;20229;-59
2022/08/14 04:13:00;;;;;;;3.33;2.93;;;22.20;99.90;;;;;;5036309;28;20224;-58
2022/08/14 04:15:33;;;;;;;3.27;2.80;;;22.10;99.90;;;;;;5040064;28;20343;-57
2022/08/14 04:18:21;;;;;;;3.30;3.10;;;22.10;99.90;;;;;;5015251;28;20240;-58
2022/08/14 04:20:49;;;;;;;4.27;2.90;;;22.10;99.90;;;;;;5028476;28;20236;-58
2022/08/14 04:23:24;;;;;;;4.10;2.83;;;22.10;99.90;;;;;;5030146;28;20225;-58
2022/08/14 04:26:01;;;;;;;5.27;3.07;;;22.10;99.90;;;;;;5024208;28;20276;-58
2022/08/14 04:28:30;;;;;;;4.83;3.73;;;22.10;99.90;;;;;;5035004;28;20235;-58
2022/08/14 04:31:21;;;;;;;3.30;2.93;;;22.10;99.90;;;;;;5034913;28;20256;-58
2022/08/14 04:34:09;;;;;;;4.07;3.10;;;22.00;99.90;;;;;;5026708;28;20224;-58
2022/08/14 04:45:22;;;;;;;6.13;3.00;;;22.10;99.90;;;;;;4960614;28;20648;-58
2022/08/14 04:50:41;;;;;;;6.30;3.00;;;22.10;99.90;;;;;;5033091;28;20270;-58
2022/08/14 04:53:14;;;;;;;5.83;3.03;;;22.20;99.90;;;;;;5036650;28;20311;-58
2022/08/14 04:55:47;;;;;;;3.67;2.63;;;22.20;99.90;;;;;;5039741;28;20213;-58
2022/08/14 04:58:21;;;;;;;3.20;2.90;;;22.20;99.90;;;;;;5041262;28;20252;-57
2022/08/14 05:01:01;;;;;;;3.60;3.13;;;22.20;99.90;;;;;;5034496;28;20243;-58
2022/08/14 05:03:34;;;;;;;3.47;2.93;;;22.20;99.90;;;;;;5033711;28;20232;-58
2022/08/14 05:06:07;;;;;;;4.50;2.80;;;22.20;99.90;;;;;;5036091;28;20742;-58
2022/08/14 05:08:55;;;;;;;3.83;2.70;;;22.20;99.90;;;;;;5037895;28;20224;-58
2022/08/14 05:11:29;;;;;;;3.10;2.77;;;22.30;99.90;;;;;;5032840;28;20638;-57
2022/08/14 05:13:57;;;;;;;5.50;2.93;;;22.40;99.90;;;;;;5032825;28;20315;-57
2022/08/14 05:16:46;;;;;;;6.03;2.77;;;22.50;99.90;;;;;;5034134;28;20228;-58
2022/08/14 05:19:16;;;;;;;6.13;3.13;;;22.50;99.90;;;;;;5015171;28;20304;-58
2022/08/14 05:21:58;;;;;;;4.23;2.93;;;22.50;99.90;;;;;;5033969;28;20215;-58
2022/08/14 05:24:47;;;;;;;2.70;2.20;;;22.40;99.90;;;;;;5042023;28;20216;-57
2022/08/14 05:27:19;;;;;;;3.10;2.80;;;22.40;99.90;;;;;;5043043;28;20266;-58
2022/08/14 05:29:52;;;;;;;4.13;2.70;;;22.40;99.90;;;;;;5042159;28;20711;-57
2022/08/14 05:32:22;;;;;;;3.43;2.40;;;22.40;99.90;;;;;;5033131;28;20252;-58
2022/08/14 05:34:57;;;;;;;5.10;2.97;;;22.40;99.90;;;;;;5038989;28;20251;-57
2022/08/14 05:37:26;;;;;;;3.53;2.83;;;22.40;99.90;;;;;;5042927;28;20269;-58
2022/08/14 05:39:55;;;;;;;3.30;2.70;;;22.40;99.90;;;;;;5040902;28;20742;-57
2022/08/14 05:42:24;;;;;;;3.23;3.00;;;22.40;99.90;;;;;;5039050;28;20226;-58
2022/08/14 05:44:59;;;;;;;4.83;2.70;;;22.40;99.90;;;;;;5033657;28;20281;-58
2022/08/14 05:47:27;;;;;;;4.47;3.10;;;22.30;99.90;;;;;;5032873;28;20316;-58
2022/08/14 05:50:09;;;;;;;4.60;2.90;;;22.30;99.90;;;;;;5032303;28;20224;-58
2022/08/14 05:52:47;;;;;;;3.13;2.70;;;22.30;99.90;;;;;;5031547;28;20630;-57
2022/08/14 05:55:16;;;;;;;4.30;3.10;;;22.30;99.90;;;;;;5033431;28;20236;-59
2022/08/14 05:57:52;;;;;;;4.90;3.00;;;22.30;99.90;;;;;;5033231;28;20216;-58
2022/08/14 06:00:26;;;;;;;4.70;2.80;;;22.30;99.90;;;;;;5034032;28;20631;-57
2022/08/14 06:02:59;;;;;;;3.23;2.80;;;22.20;99.90;;;;;;5033593;28;20224;-57
2022/08/14 06:05:32;;;;;;;5.90;2.50;;;22.30;99.90;;;;;;5032813;28;20645;-57
2022/08/14 06:08:02;;;;;;;2.80;2.60;;;22.30;99.90;;;;;;5031692;28;20228;-58
2022/08/14 06:10:49;;;;;;;5.30;2.67;;;22.30;99.90;;;;;;5031713;28;20224;-58
2022/08/14 06:13:18;;;;;;;4.70;2.83;;;22.30;99.90;;;;;;5032685;28;20224;-57
2022/08/14 06:15:47;;;;;;;4.53;3.03;;;22.40;99.90;;;;;;5032792;28;20328;-58
2022/08/14 06:18:16;;;;;;;4.07;2.70;;;22.60;99.90;;;;;;5033004;28;20229;-58
2022/08/14 06:20:46;;;;;;;4.50;2.97;;;22.80;99.90;;;;;;5031399;28;20358;-58
2022/08/14 06:23:14;;;;;;;3.43;3.10;;;23.00;99.90;;;;;;5032122;28;20235;-57
2022/08/14 06:25:46;;;;;;;3.27;2.80;;;23.10;99.90;;;;;;5037597;28;20233;-58
2022/08/14 06:28:21;;;;;;;5.63;3.40;;;23.10;99.90;;;;;;5039690;28;20231;-57
2022/08/14 06:30:55;;;;;;;4.13;2.83;;;23.30;99.90;;;;;;5031154;28;20314;-58
2022/08/14 06:33:24;;;;;;;3.20;2.63;;;23.50;99.90;;;;;;5035927;28;20260;-58
2022/08/14 06:36:17;;;;;;;6.00;2.97;;;23.60;99.90;;;;;;5031740;28;20235;-57
2022/08/14 06:38:46;;;;;;;3.80;2.90;;;23.60;99.90;;;;;;5029098;28;20229;-57
2022/08/14 06:41:17;;;;;;;2.93;2.70;;;23.80;99.90;;;;;;5018685;28;20267;-58
2022/08/14 06:43:48;;;;;;;3.67;2.80;;;23.90;99.90;;;;;;5019531;28;20238;-57
2022/08/14 06:46:16;;;;;;;3.17;2.53;;;24.00;99.90;;;;;;5020532;28;20236;-56
2022/08/14 06:49:02;;;;;;;5.00;2.87;;;24.10;99.90;;;;;;5018063;28;21744;-57
2022/08/14 06:51:34;;;;;;;5.03;2.83;;;24.20;99.90;;;;;;5017591;28;20253;-56
2022/08/14 06:54:12;;;;;;;3.87;2.50;;;24.10;99.90;;;;;;5020471;28;20241;-58
2022/08/14 06:56:40;;;;;;;3.93;3.03;;;24.10;99.90;;;;;;5019553;28;20237;-57
2022/08/14 06:59:14;;;;;;;9.00;3.00;;;24.10;99.90;;;;;;5018383;28;20289;-57
2022/08/14 07:07:36;;;;;;;4.10;2.87;;;24.60;99.90;;;;;;5019908;28;20714;-57
2022/08/14 07:10:07;;;;;;;2.93;2.60;;;24.70;99.90;;;;;;5016454;28;20341;-57
2022/08/14 07:12:44;;;;;;;4.33;2.67;;;24.90;99.90;;;;;;5019421;28;21389;-57
2022/08/14 07:15:29;;;;;;;5.13;3.10;;;25.10;99.90;;;;;;5019899;28;20234;-57
2022/08/14 07:18:02;;;;;;;3.57;2.70;;;25.30;99.90;;;;;;5019669;28;20239;-57
2022/08/14 07:20:30;;;;;;;2.87;2.60;;;25.60;99.90;;;;;;5016573;28;20227;-57
2022/08/14 07:23:01;;;;;;;3.17;2.63;;;25.90;99.90;;;;;;5020081;28;20222;-58
2022/08/14 07:25:35;;;;;;;3.97;2.80;;;26.00;99.90;;;;;;5019534;28;20355;-57
2022/08/14 07:28:10;;;;;;;3.17;2.53;;;26.00;99.90;;;;;;5019778;28;20242;-56
2022/08/14 07:30:48;;;;;;;4.10;3.03;;;26.10;99.90;;;;;;5015839;28;20237;-57
2022/08/14 07:33:19;;;;;;;3.60;2.77;;;26.30;99.90;;;;;;5019961;28;20599;-57
2022/08/14 07:35:58;;;;;;;3.27;2.93;;;26.60;99.90;;;;;;5020010;28;20599;-58
2022/08/14 07:38:28;;;;;;;3.33;2.80;;;26.60;99.90;;;;;;5023031;28;20227;-58
2022/08/14 07:41:05;;;;;;;3.27;2.60;;;26.70;99.90;;;;;;5019573;28;20758;-58
2022/08/14 07:43:43;;;;;;;3.40;2.87;;;26.70;99.90;;;;;;5024013;28;20316;-57
2022/08/14 07:46:23;;;;;;;4.23;2.70;;;26.80;99.90;;;;;;5023694;28;20309;-57
2022/08/14 07:48:58;;;;;;;6.17;2.97;;;26.90;99.90;;;;;;5023381;28;20232;-58
2022/08/14 07:51:26;;;;;;;3.33;2.90;;;26.90;99.90;;;;;;5020798;28;20757;-58
2022/08/14 07:54:06;;;;;;;4.50;3.00;;;26.80;99.90;;;;;;5023624;28;20826;-57
2022/08/14 07:56:39;;;;;;;3.23;2.90;;;26.90;99.90;;;;;;5023478;28;20687;-57
2022/08/14 07:59:19;;;;;;;3.67;3.00;;;27.00;99.90;;;;;;5019417;28;20231;-58
2022/08/14 08:02:09;;;;;;;4.23;3.10;;;27.10;99.90;;;;;;5022624;28;20257;-57
2022/08/14 08:04:49;;;;;;;3.10;2.80;;;27.20;99.90;;;;;;5023965;28;20246;-58
2022/08/14 08:07:22;;;;;;;4.53;3.13;;;27.20;99.90;;;;;;5022801;28;20236;-57
2022/08/14 08:09:56;;;;;;;6.07;3.00;;;27.20;99.90;;;;;;5019426;28;20715;-58
2022/08/14 08:12:25;;;;;;;5.63;3.00;;;27.20;99.90;;;;;;5023587;28;20299;-57
2022/08/14 08:14:58;;;;;;;4.20;3.20;;;27.20;99.90;;;;;;5023228;28;20235;-57
2022/08/14 08:17:35;;;;;;;3.87;2.73;;;27.30;99.90;;;;;;5022738;28;20231;-57
2022/08/14 08:20:23;;;;;;;3.77;2.90;;;27.30;99.90;;;;;;5019198;28;20236;-57
2022/08/14 08:22:55;;;;;;;5.00;2.83;;;27.50;99.90;;;;;;5022927;28;20228;-58
2022/08/14 08:25:30;;;;;;;3.47;2.83;;;28.00;99.90;;;;;;5022261;28;20228;-58
2022/08/14 08:28:01;;;;;;;3.60;2.60;;;28.60;99.90;;;;;;5022651;28;20236;-58
2022/08/14 08:30:40;;;;;;;3.50;2.53;;;29.50;99.90;;;;;;5018066;28;20259;-57
2022/08/14 08:33:18;;;;;;;4.17;2.90;;;29.90;99.90;;;;;;5021889;28;20228;-57
2022/08/14 08:35:46;;;;;;;3.10;2.80;;;29.90;99.90;;;;;;5022183;28;20243;-58
2022/08/14 08:38:20;;;;;;;3.70;3.00;;;29.50;99.90;;;;;;5022489;28;20274;-58
2022/08/14 08:41:09;;;;;;;3.63;3.20;;;29.20;99.90;;;;;;5019444;28;20228;-58
2022/08/14 08:43:40;;;;;;;6.30;3.13;;;29.00;99.90;;;;;;5022451;28;20233;-57
2022/08/14 08:46:20;;;;;;;5.70;3.07;;;28.80;99.90;;;;;;5022115;28;20235;-58
2022/08/14 08:48:52;;;;;;;7.73;3.20;;;28.60;99.90;;;;;;5022132;28;20232;-58
2022/08/14 08:51:22;;;;;;;4.00;3.40;;;28.50;99.90;;;;;;5019266;28;20232;-57
2022/08/14 08:53:59;;;;;;;4.93;3.27;;;28.40;99.90;;;;;;5022079;28;20228;-58
2022/08/14 08:56:40;;;;;;;4.03;3.50;;;28.30;99.90;;;;;;5021834;28;20239;-58
2022/08/14 08:59:18;;;;;;;4.20;3.27;;;28.40;99.90;;;;;;5019706;28;20605;-58
2022/08/14 09:01:52;;;;;;;6.77;3.13;;;28.50;99.90;;;;;;5021012;28;20318;-57
2022/08/14 09:04:26;;;;;;;3.93;3.13;;;28.50;99.90;;;;;;5021735;28;21278;-56
2022/08/14 09:06:54;;;;;;;6.37;3.10;;;28.60;99.90;;;;;;5022250;28;20216;-57
2022/08/14 09:09:50;;;;;;;4.87;3.03;;;28.80;99.90;;;;;;5018715;28;20306;-58
2022/08/14 09:12:28;;;;;;;3.63;2.83;;;29.10;99.90;;;;;;5021067;28;20224;-58
2022/08/14 09:15:01;;;;;;;4.47;2.70;;;29.60;99.90;;;;;;5021466;28;20237;-58
2022/08/14 09:17:29;;;;;;;5.00;3.30;;;29.90;99.90;;;;;;5020959;28;20247;-57
2022/08/14 09:19:58;;;;;;;4.23;3.23;;;30.60;99.90;;;;;;5018305;28;21401;-58
2022/08/14 09:22:31;;;;;;;3.40;3.10;;;31.10;99.90;;;;;;5021235;28;20711;-58
2022/08/14 09:25:05;;;;;;;7.40;3.87;;;31.30;99.90;;;;;;5020571;28;20236;-58
2022/08/14 09:27:36;;;;;;;5.90;3.30;;;31.30;99.90;;;;;;5022448;28;20656;-58
2022/08/14 09:30:09;;;;;;;3.57;3.27;;;31.00;99.90;;;;;;5017385;28;20229;-58
2022/08/14 09:33:11;;;;;;;4.30;3.30;;;30.90;99.90;;;;;;5001336;28;20249;-58
2022/08/14 09:35:53;;;;;;;4.13;3.30;;;30.50;99.90;;;;;;5001882;28;20632;-58
2022/08/14 09:38:32;;;;;;;6.70;3.70;;;30.00;99.90;;;;;;5000435;28;20732;-57
2022/08/14 09:41:21;;;;;;;4.73;3.37;;;29.80;99.90;;;;;;4998323;28;20237;-58
2022/08/14 09:43:59;;;;;;;7.07;3.80;;;29.60;99.90;;;;;;5001164;28;20257;-58
2022/08/14 09:46:31;;;;;;;4.13;3.67;;;29.70;99.90;;;;;;4999723;28;20235;-58
2022/08/14 09:49:00;;;;;;;4.77;3.30;;;30.30;99.90;;;;;;4999507;28;20230;-58
2022/08/14 09:51:31;;;;;;;4.20;3.50;;;31.40;99.90;;;;;;4998899;28;20229;-59
2022/08/14 09:54:12;;;;;;;4.13;3.40;;;32.40;99.90;;;;;;5000192;28;20309;-58
2022/08/14 09:56:52;;;;;;;5.40;3.63;;;32.40;99.90;;;;;;5002339;28;20706;-58
2022/08/14 09:59:28;;;;;;;7.90;3.50;;;32.10;99.90;;;;;;4997379;28;20230;-58
2022/08/14 10:02:00;;;;;;;7.47;3.50;;;31.90;99.90;;;;;;5014782;28;20235;-57
2022/08/14 10:04:28;;;;;;;6.00;3.73;;;32.40;99.90;;;;;;5019858;28;20246;-57
2022/08/14 10:07:08;;;;;;;6.43;4.23;;;32.80;99.90;;;;;;5020750;28;20880;-59
2022/08/14 10:09:48;;;;;;;4.27;3.40;;;32.50;99.90;;;;;;5017261;28;20267;-58
2022/08/14 10:12:46;;;;;;;5.77;4.13;;;32.40;99.90;;;;;;5017887;28;20239;-58
2022/08/14 10:15:21;;;;;;;5.07;3.80;;;31.80;99.90;;;;;;5022246;28;20349;-58
2022/08/14 10:18:02;;;;;;;4.63;3.80;;;31.50;99.90;;;;;;5020584;28;20264;-58
2022/08/14 10:20:33;;;;;;;4.73;3.80;;;31.70;99.90;;;;;;5013758;28;20267;-58
2022/08/14 10:23:13;;;;;;;8.47;4.30;;;32.20;99.90;;;;;;5022060;28;20380;-58
2022/08/14 10:25:49;;;;;;;6.23;3.90;;;32.40;99.90;;;;;;5020166;28;20326;-59
2022/08/14 10:28:19;;;;;;;4.13;3.70;;;32.80;99.90;;;;;;5021077;28;22079;-58
2022/08/14 10:31:19;;;;;;;5.03;4.40;;;33.30;99.90;;;;;;5015038;28;20243;-58
2022/08/14 10:34:02;;;;;;;4.90;4.37;;;33.80;99.90;;;;;;5020778;28;20239;-59
2022/08/14 10:36:42;;;;;;;9.17;4.30;;;33.30;99.90;;;;;;5020917;28;20244;-58
2022/08/14 10:39:17;;;;;;;7.87;4.70;;;32.70;99.90;;;;;;5017754;28;20286;-59
2022/08/14 10:41:46;;;;;;;6.03;4.20;;;32.10;99.90;;;;;;5020179;28;20228;-59
2022/08/14 10:44:24;;;;;;;5.10;4.70;;;31.80;99.90;;;;;;5021511;28;20235;-59
2022/08/14 10:47:06;;;;;;;5.80;4.63;;;31.80;99.90;;;;;;5020051;28;20229;-59
2022/08/14 10:49:58;;;;;;;6.63;4.60;;;32.00;99.90;;;;;;5018014;28;20223;-58
2022/08/14 10:52:30;;;;;;;5.37;4.77;;;32.20;99.90;;;;;;5020869;28;20228;-59
2022/08/14 10:55:12;;;;;;;6.73;5.20;;;32.20;99.90;;;;;;5021319;28;20238;-58
2022/08/14 10:57:50;;;;;;;8.07;4.93;;;32.00;99.90;;;;;;5021133;28;20226;-59
2022/08/14 11:00:20;;;;;;;5.40;4.80;;;31.80;99.90;;;;;;5017608;28;20239;-58
2022/08/14 11:03:08;;;;;;;6.93;4.57;;;31.80;99.90;;;;;;5020597;28;20229;-58
2022/08/14 11:05:42;;;;;;;5.40;4.70;;;32.20;99.90;;;;;;5020520;28;20256;-58
2022/08/14 11:08:13;;;;;;;8.23;4.80;;;32.50;99.90;;;;;;5021898;28;20624;-58
2022/08/14 11:10:44;;;;;;;5.70;5.20;;;32.90;99.90;;;;;;5017235;28;20241;-58
2022/08/14 11:13:17;;;;;;;7.13;4.80;;;32.90;99.90;;;;;;5026437;28;20239;-58
2022/08/14 11:15:47;;;;;;;8.63;5.20;;;32.40;99.90;;;;;;5026429;28;20449;-59
2022/08/14 11:18:20;;;;;;;6.13;4.90;;;32.10;99.90;;;;;;5026122;28;20789;-59
2022/08/14 11:21:07;;;;;;;7.43;5.27;;;31.60;99.90;;;;;;5021498;28;20220;-58
2022/08/14 11:23:39;;;;;;;7.77;5.23;;;31.60;99.90;;;;;;5025218;28;20232;-58
2022/08/14 11:26:12;;;;;;;5.33;4.37;;;31.60;99.90;;;;;;5025654;28;20238;-57
2022/08/14 11:28:45;;;;;;;7.80;4.90;;;31.60;99.90;;;;;;5025337;28;20225;-59
2022/08/14 11:31:19;;;;;;;8.07;4.87;;;31.90;99.90;;;;;;5018786;28;20243;-59
2022/08/14 11:33:56;;;;;;;5.67;5.13;;;32.40;99.90;;;;;;5024392;28;20239;-58
2022/08/14 11:36:27;;;;;;;8.17;5.03;;;32.70;99.90;;;;;;5024028;28;21916;-59
2022/08/14 11:39:19;;;;;;;5.67;5.17;;;32.60;99.90;;;;;;5019794;28;20773;-58
2022/08/14 11:42:04;;;;;;;5.87;4.90;;;32.50;99.60;;;;;;5023477;28;20231;-58
2022/08/14 11:44:57;;;;;;;8.37;5.23;;;32.50;99.90;;;;;;5023325;28;20703;-58
2022/08/14 11:47:27;;;;;;;6.43;4.93;;;32.00;99.90;;;;;;5025090;28;20726;-58
2022/08/14 11:50:21;;;;;;;6.90;5.27;;;31.50;99.90;;;;;;5019447;28;20584;-58
2022/08/14 11:53:08;;;;;;;5.63;5.13;;;31.30;99.90;;;;;;5023289;28;20298;-57
2022/08/14 11:55:42;;;;;;;8.00;5.43;;;31.20;99.90;;;;;;5023034;28;20243;-57
2022/08/14 11:58:12;;;;;;;6.30;5.27;;;31.10;99.90;;;;;;5024037;28;20290;-57
2022/08/14 12:01:00;;;;;;;6.73;6.00;;;31.00;99.90;;;;;;5017630;28;20232;-58
2022/08/14 12:03:36;;;;;;;7.20;5.70;;;30.90;99.90;;;;;;5023950;28;20221;-58
2022/08/14 12:06:21;;;;;;;8.03;5.30;;;30.80;99.90;;;;;;5021493;28;20227;-58
2022/08/14 12:09:06;;;;;;;6.83;5.17;;;30.90;99.90;;;;;;5019646;28;20236;-59
2022/08/14 12:11:41;;;;;;;6.50;5.33;;;30.80;99.90;;;;;;5019093;28;20251;-57
2022/08/14 12:14:16;;;;;;;7.77;5.03;;;30.80;99.90;;;;;;5023148;28;20231;-59
2022/08/14 12:17:05;;;;;;;6.00;5.30;;;30.60;99.90;;;;;;5021971;28;20278;-58
2022/08/14 12:19:47;;;;;;;7.37;5.53;;;30.80;99.90;;;;;;5020473;28;20234;-58
2022/08/14 12:22:35;;;;;;;8.50;5.40;;;30.90;99.90;;;;;;5022143;28;20228;-57
2022/08/14 12:25:07;;;;;;;9.10;5.30;;;30.90;99.90;;;;;;5024770;28;20233;-58
2022/08/14 12:27:43;;;;;;;5.77;5.27;;;30.80;99.90;;;;;;5023190;28;20685;-59
2022/08/14 12:30:28;;;;;;;6.50;5.67;;;30.80;99.90;;;;;;5018670;28;20229;-57
2022/08/14 12:33:08;;;;;;;7.53;5.27;;;30.80;99.90;;;;;;5022237;28;20236;-59
2022/08/14 12:35:38;;;;;;;5.80;5.30;;;30.70;99.90;;;;;;5021257;28;20243;-57
2022/08/14 12:38:10;;;;;;;5.63;5.13;;;30.70;99.90;;;;;;5020028;28;20709;-58
2022/08/14 12:40:49;;;;;;;6.33;5.50;;;30.60;99.90;;;;;;5017233;28;20372;-58
2022/08/14 12:43:18;;;;;;;7.00;5.67;;;30.30;99.90;;;;;;5021929;28;20236;-58
2022/08/14 12:45:50;;;;;;;6.60;5.30;;;30.20;99.90;;;;;;5021707;28;20915;-58
2022/08/14 12:48:19;;;;;;;10.77;5.30;;;30.20;99.90;;;;;;5022646;28;20226;-58
2022/08/14 12:50:58;;;;;;;6.33;5.73;;;30.20;99.90;;;;;;5016840;28;20236;-59
2022/08/14 12:53:37;;;;;;;6.37;5.87;;;29.90;99.90;;;;;;5022609;28;20243;-59
2022/08/14 12:56:06;;;;;;;9.00;6.03;;;29.90;99.90;;;;;;5021115;28;20266;-59
2022/08/14 12:58:58;;;;;;;5.97;5.40;;;29.90;99.90;;;;;;5020347;28;20246;-58
2022/08/14 13:01:28;;;;;;;7.50;6.00;;;29.90;99.90;;;;;;5017546;28;20241;-58
2022/08/14 13:04:07;;;;;;;6.20;5.60;;;29.90;99.90;;;;;;4991311;28;1106336;-57
2022/08/14 13:06:39;;;;;;;7.90;6.23;;;29.80;99.90;;;;;;5034079;28;20224;-58
2022/08/14 13:09:11;;;;;;;7.07;6.10;;;29.90;99.90;;;;;;5026160;28;20686;-58
2022/08/14 13:11:44;;;;;;;7.30;6.00;;;29.70;99.90;;;;;;5034611;28;20224;-57
2022/08/14 13:14:15;;;;;;;7.60;6.10;;;29.80;99.90;;;;;;5014394;28;20246;-57
2022/08/14 13:16:45;;;;;;;8.17;6.20;;;29.80;99.90;;;;;;5023962;28;21594;-57
2022/08/14 13:19:20;;;;;;;9.57;6.20;;;29.70;99.90;;;;;;5036688;28;20223;-58
2022/08/14 13:21:58;;;;;;;6.37;5.80;;;29.80;99.90;;;;;;5036280;28;20230;-57
2022/08/14 13:24:39;;;;;;;6.13;5.60;;;29.60;99.90;;;;;;5054663;28;20230;-57
2022/08/14 13:27:12;;;;;;;8.77;5.87;;;29.70;99.90;;;;;;5043741;28;20229;-57
2022/08/14 13:29:44;;;;;;;8.53;6.27;;;29.70;99.90;;;;;;5036256;28;20257;-57
2022/08/14 13:32:15;;;;;;;6.93;6.33;;;29.60;99.90;;;;;;5025858;28;20277;-57
2022/08/14 13:34:48;;;;;;;11.70;5.93;;;29.60;99.90;;;;;;5032841;28;20225;-57
2022/08/14 13:37:19;;;;;;;7.70;5.90;;;29.70;99.90;;;;;;5027684;28;20225;-58
2022/08/14 13:39:54;;;;;;;6.40;5.80;;;29.80;99.90;;;;;;5036493;28;20315;-58
2022/08/14 13:42:27;;;;;;;8.73;6.17;;;29.90;99.90;;;;;;5044382;28;20338;-58
2022/08/14 13:45:01;;;;;;;6.40;5.80;;;29.90;99.90;;;;;;5039892;28;20279;-57
2022/08/14 13:47:34;;;;;;;7.63;6.63;;;29.90;99.90;;;;;;5033087;28;20244;-58
2022/08/14 13:50:08;;;;;;;8.23;6.70;;;29.90;99.90;;;;;;5031891;28;20309;-57
2022/08/14 13:52:42;;;;;;;8.40;6.07;;;29.80;99.90;;;;;;5033413;28;20233;-58